North Branch, Minnesota
Current Conditions -  °F | °C
As of 6:35 PM on Wednesday 26 Nov 2014 (Local Time) from KROS Reporting Station
Overcast Overcast  
Wind Chill: 10°   Ceiling: 11000
Heat Index: 20°   Visibility: 10mi
Dew Point: 10°   Wind: 8mph
Humidity: 64%   Direction: 340°NNW
Pressure: 30.31"   Gusts: NA
Location:  45.51°N, 92.98°W
Report Text: KROS 270035Z AUTO 34007KT 10SM OVC110 M07/M12 A3031 RMK AO2 T10661124
Loading
Personal Weather Stations






























Interactive Weather Map New forecast layout! Learn more

10-Day Weather Forecast

Advertisements
Track Severe Weather on mobile